Time;durP1;ratioP1;P1;durP2;ratioP2;P2;SDS_P1;SDS_P2;PMS_P1;PMS_P2;Temp;Humidity;BMP_temperature;BMP_pressure;BME280_temperature;BME280_humidity;BME280_pressure;Samples;Min_cycle;Max_cycle;Signal;HPM_P1;HPM_P2
2022/10/30 00:00:54;;;;;;;8.82;4.70;;;16.10;83.30;;;;;;4897427;29;20048;-32
2022/10/30 00:03:19;;;;;;;8.65;5.15;;;16.10;83.30;;;;;;4897356;29;20020;-33
2022/10/30 00:05:47;;;;;;;11.65;5.65;;;16.00;83.30;;;;;;4880538;29;20033;-33
2022/10/30 00:08:16;;;;;;;14.10;5.30;;;16.00;83.40;;;;;;4897345;29;20032;-33
2022/10/30 00:10:42;;;;;;;9.02;5.15;;;16.00;83.40;;;;;;4897333;29;20108;-34
2022/10/30 00:13:08;;;;;;;10.27;5.80;;;15.90;83.40;;;;;;4897032;29;20123;-33
2022/10/30 00:15:33;;;;;;;11.23;5.45;;;16.00;83.40;;;;;;4897184;29;20048;-33
2022/10/30 00:17:59;;;;;;;10.07;5.28;;;15.90;83.40;;;;;;4897110;29;20465;-35
2022/10/30 00:20:25;;;;;;;9.65;5.18;;;15.90;83.40;;;;;;4897172;29;20021;-32
2022/10/30 00:22:50;;;;;;;11.25;5.80;;;15.80;83.40;;;;;;4897215;29;20067;-36
2022/10/30 00:25:16;;;;;;;10.00;4.72;;;15.90;83.40;;;;;;4897030;29;20037;-32
2022/10/30 00:27:41;;;;;;;10.30;5.22;;;15.80;83.40;;;;;;4897172;29;20021;-34
2022/10/30 00:30:08;;;;;;;9.82;5.60;;;15.80;83.50;;;;;;4897050;29;20393;-33
2022/10/30 00:32:33;;;;;;;9.32;5.20;;;15.80;83.50;;;;;;4897085;29;20029;-32
2022/10/30 00:34:59;;;;;;;8.05;5.30;;;15.80;83.60;;;;;;4897190;29;20426;-33
2022/10/30 00:37:24;;;;;;;14.13;5.80;;;15.70;83.50;;;;;;4897071;29;20115;-33
2022/10/30 00:39:50;;;;;;;9.13;4.78;;;15.70;83.50;;;;;;4897010;29;20456;-33
2022/10/30 00:42:16;;;;;;;10.02;5.10;;;15.70;83.50;;;;;;4897029;29;20037;-33
2022/10/30 00:44:47;;;;;;;11.65;5.30;;;15.70;83.50;;;;;;4897284;29;20025;-34
2022/10/30 00:47:18;;;;;;;8.95;5.28;;;15.70;83.50;;;;;;4896958;29;20092;-34
2022/10/30 00:50:05;;;;;;;8.68;5.25;;;15.70;83.40;;;;;;4897051;29;20377;-33
2022/10/30 00:52:34;;;;;;;11.75;5.30;;;15.70;83.50;;;;;;4897052;29;20020;-34
2022/10/30 00:55:08;;;;;;;9.32;5.18;;;15.70;83.40;;;;;;4896956;29;20029;-33
2022/10/30 00:57:35;;;;;;;9.88;5.40;;;15.70;83.40;;;;;;4897022;29;20021;-33
2022/10/30 01:00:03;;;;;;;12.57;5.25;;;15.80;83.40;;;;;;4896792;29;20473;-34
2022/10/30 01:02:29;;;;;;;13.85;5.10;;;15.80;83.40;;;;;;4896989;29;20457;-32
2022/10/30 01:04:55;;;;;;;9.27;4.55;;;15.80;83.40;;;;;;4896631;29;20038;-33
2022/10/30 01:07:20;;;;;;;6.68;4.80;;;15.80;83.30;;;;;;4896800;29;20033;-33
2022/10/30 01:09:46;;;;;;;9.82;4.78;;;15.70;83.30;;;;;;4896660;29;20029;-33
2022/10/30 01:12:13;;;;;;;8.73;5.28;;;15.80;83.30;;;;;;4896421;29;20043;-34
2022/10/30 01:14:44;;;;;;;9.32;5.05;;;15.70;83.30;;;;;;4896623;29;20060;-32
2022/10/30 01:17:15;;;;;;;12.70;5.45;;;15.70;83.40;;;;;;4896467;29;20076;-35
2022/10/30 01:19:56;;;;;;;11.40;5.15;;;15.70;83.40;;;;;;4896536;29;20024;-33
2022/10/30 01:22:42;;;;;;;9.88;5.07;;;15.70;83.40;;;;;;4896536;29;20054;-33
2022/10/30 01:25:47;;;;;;;12.77;5.00;;;15.60;83.40;;;;;;4896825;29;20032;-33
2022/10/30 01:28:27;;;;;;;;;;;15.60;83.40;;;;;;4882012;29;20045;-33
2022/10/30 01:31:07;;;;;;;9.75;4.78;;;15.60;83.40;;;;;;4896784;29;20003;-34
2022/10/30 01:33:59;;;;;;;7.45;4.78;;;15.50;83.40;;;;;;4896389;29;20032;-34
2022/10/30 01:36:54;;;;;;;12.43;5.53;;;15.50;83.40;;;;;;4896542;29;20025;-33
2022/10/30 01:39:26;;;;;;;10.15;6.22;;;15.50;83.50;;;;;;4896609;29;20032;-33
2022/10/30 01:41:52;;;;;;;10.93;5.55;;;15.50;83.50;;;;;;4896674;29;20036;-33
2022/10/30 01:44:30;;;;;;;11.15;6.45;;;15.40;83.50;;;;;;4896556;29;20037;-32
2022/10/30 01:47:10;;;;;;;9.63;5.38;;;15.40;83.60;;;;;;4897566;29;20047;-31
2022/10/30 01:49:49;;;;;;;12.27;6.47;;;15.40;83.60;;;;;;4899841;29;20028;-33
2022/10/30 01:52:45;;;;;;;9.65;5.82;;;15.40;83.60;;;;;;4899828;29;20088;-34
2022/10/30 01:55:38;;;;;;;11.55;5.30;;;15.40;83.60;;;;;;4899903;29;20077;-33
2022/10/30 01:58:18;;;;;;;11.02;5.35;;;15.40;83.70;;;;;;4899616;29;20049;-33
2022/10/30 02:00:47;;;;;;;11.73;5.47;;;15.30;83.60;;;;;;4899336;29;20099;-34
2022/10/30 02:03:13;;;;;;;11.57;5.57;;;15.30;83.60;;;;;;4899625;29;20056;-32
2022/10/30 02:05:46;;;;;;;10.63;5.65;;;15.30;83.70;;;;;;4899272;29;20603;-33
2022/10/30 02:08:13;;;;;;;10.93;5.20;;;15.30;83.70;;;;;;4899157;29;20056;-39
2022/10/30 02:10:41;;;;;;;8.68;5.60;;;15.30;83.80;;;;;;4899017;29;20425;-32
2022/10/30 02:13:06;;;;;;;10.13;5.30;;;15.30;83.80;;;;;;4899085;29;20036;-31
2022/10/30 02:15:33;;;;;;;9.48;5.40;;;15.30;83.80;;;;;;4882302;29;20552;-33
2022/10/30 02:17:58;;;;;;;10.07;5.40;;;15.30;83.80;;;;;;4898993;29;20033;-32
2022/10/30 02:20:25;;;;;;;11.10;5.30;;;15.30;83.80;;;;;;4898903;29;20025;-33
2022/10/30 02:22:50;;;;;;;9.05;5.45;;;15.30;83.80;;;;;;4899303;29;20029;-33
2022/10/30 02:25:16;;;;;;;10.35;5.13;;;15.30;83.80;;;;;;4898964;29;20458;-31
2022/10/30 02:27:42;;;;;;;8.55;5.43;;;15.30;83.80;;;;;;4898999;29;20029;-34
2022/10/30 02:30:08;;;;;;;8.43;5.93;;;15.20;83.80;;;;;;4898773;29;20092;-33
2022/10/30 02:32:34;;;;;;;9.07;5.65;;;15.20;83.80;;;;;;4898974;29;20036;-34
2022/10/30 02:35:00;;;;;;;10.95;6.25;;;15.20;83.80;;;;;;4898702;29;20017;-33
2022/10/30 02:37:26;;;;;;;14.38;8.00;;;15.20;83.80;;;;;;4898872;29;20020;-33
2022/10/30 02:39:52;;;;;;;17.92;8.52;;;15.20;83.90;;;;;;4898753;29;20017;-33
2022/10/30 02:42:17;;;;;;;15.00;9.05;;;15.20;83.90;;;;;;4898608;29;20039;-32
2022/10/30 02:44:43;;;;;;;23.70;11.15;;;15.20;83.90;;;;;;4898474;29;20021;-34
2022/10/30 02:47:08;;;;;;;29.80;14.55;;;15.20;83.90;;;;;;4898782;29;20064;-32
2022/10/30 02:49:34;;;;;;;82.18;31.15;;;15.10;83.90;;;;;;4898676;29;20435;-35
2022/10/30 02:51:59;;;;;;;85.40;38.58;;;15.20;84.00;;;;;;4898456;29;20033;-32
2022/10/30 02:54:25;;;;;;;100.93;42.10;;;15.10;83.90;;;;;;4898481;29;20437;-33
2022/10/30 02:56:51;;;;;;;104.68;43.22;;;15.10;84.00;;;;;;4898610;29;20115;-33
2022/10/30 02:59:16;;;;;;;91.00;37.55;;;15.10;84.00;;;;;;4897282;29;20461;-32
2022/10/30 03:01:42;;;;;;;75.32;34.72;;;15.10;84.60;;;;;;4898078;29;20048;-33
2022/10/30 03:04:08;;;;;;;73.57;30.83;;;15.00;84.00;;;;;;4897939;29;20032;-32
2022/10/30 03:06:33;;;;;;;64.22;27.70;;;15.10;84.10;;;;;;4898101;29;20041;-33
2022/10/30 03:08:59;;;;;;;41.30;19.17;;;15.00;84.00;;;;;;4897852;29;20032;-33
2022/10/30 03:11:25;;;;;;;27.50;15.00;;;15.00;84.10;;;;;;4898088;29;20081;-33
2022/10/30 03:13:51;;;;;;;27.17;13.55;;;15.00;84.20;;;;;;4897736;29;20052;-33
2022/10/30 03:16:22;;;;;;;29.75;13.43;;;14.90;84.20;;;;;;4897678;29;20032;-32
2022/10/30 03:18:49;;;;;;;25.50;11.95;;;14.90;84.20;;;;;;4897482;29;20075;-33
2022/10/30 03:21:18;;;;;;;22.02;10.63;;;14.90;84.20;;;;;;4897718;29;20528;-34
2022/10/30 03:23:44;;;;;;;22.98;10.70;;;14.90;84.30;;;;;;4897978;29;20036;-33
2022/10/30 03:26:10;;;;;;;21.40;10.18;;;14.80;84.30;;;;;;4897335;29;20036;-32
2022/10/30 03:28:35;;;;;;;15.90;8.05;;;14.90;84.30;;;;;;4897093;29;20480;-33
2022/10/30 03:31:08;;;;;;;15.13;7.93;;;14.80;84.30;;;;;;4897106;29;20131;-33
2022/10/30 03:33:34;;;;;;;13.57;6.47;;;14.80;84.30;;;;;;4897056;29;20025;-32
2022/10/30 03:36:00;;;;;;;13.18;6.55;;;14.80;84.30;;;;;;4896855;29;20493;-39
2022/10/30 03:38:25;;;;;;;13.07;6.75;;;14.80;84.40;;;;;;4896924;29;20037;-33
2022/10/30 03:40:52;;;;;;;11.40;6.30;;;14.80;84.40;;;;;;4896786;29;20093;-39
2022/10/30 03:43:18;;;;;;;10.68;6.30;;;14.80;84.50;;;;;;4896767;29;20044;-33
2022/10/30 03:45:48;;;;;;;16.02;6.65;;;14.80;84.60;;;;;;4897140;29;20029;-34
2022/10/30 03:48:14;;;;;;;8.70;5.80;;;14.70;84.50;;;;;;4896726;29;20452;-33
2022/10/30 03:50:40;;;;;;;9.65;5.70;;;14.70;84.60;;;;;;4896954;29;20104;-33
2022/10/30 03:53:05;;;;;;;8.63;5.55;;;14.70;84.70;;;;;;4896823;29;20117;-32
2022/10/30 03:55:31;;;;;;;11.18;6.40;;;14.70;84.70;;;;;;4896928;29;20386;-33
2022/10/30 03:57:56;;;;;;;11.43;5.90;;;14.60;84.60;;;;;;4896657;29;20059;-32
2022/10/30 04:00:22;;;;;;;10.05;5.60;;;14.70;84.70;;;;;;4896339;29;20100;-33
2022/10/30 04:02:49;;;;;;;11.57;6.10;;;14.60;84.70;;;;;;4896630;29;20040;-33
2022/10/30 04:05:17;;;;;;;11.15;6.07;;;14.60;84.80;;;;;;4896591;29;20033;-35
2022/10/30 04:07:42;;;;;;;10.80;5.88;;;14.60;84.90;;;;;;4896557;29;20406;-38
2022/10/30 04:10:09;;;;;;;13.45;5.63;;;14.60;84.90;;;;;;4896199;29;20119;-31
2022/10/30 04:12:35;;;;;;;10.23;6.00;;;14.60;84.90;;;;;;4896099;29;20029;-33
2022/10/30 04:15:00;;;;;;;10.55;6.03;;;14.60;84.90;;;;;;4896121;29;20402;-32
2022/10/30 04:17:26;;;;;;;10.35;5.97;;;14.60;84.90;;;;;;4896469;29;20028;-33
2022/10/30 04:19:51;;;;;;;8.85;6.18;;;14.60;85.00;;;;;;4896067;29;20077;-33
2022/10/30 04:22:17;;;;;;;12.43;5.80;;;14.60;85.00;;;;;;4896120;29;20054;-32
2022/10/30 04:24:43;;;;;;;9.25;5.47;;;14.60;85.00;;;;;;4896441;29;20044;-33
2022/10/30 04:27:09;;;;;;;10.95;5.85;;;14.60;85.00;;;;;;4896167;29;20039;-33
2022/10/30 04:29:36;;;;;;;9.23;5.80;;;14.50;85.00;;;;;;4896121;29;20029;-33
2022/10/30 04:32:02;;;;;;;9.73;6.20;;;14.50;85.00;;;;;;4896262;29;20029;-34
2022/10/30 04:34:27;;;;;;;13.00;5.75;;;14.50;85.10;;;;;;4896252;29;20025;-33
2022/10/30 04:36:54;;;;;;;11.68;6.07;;;14.50;85.10;;;;;;4896445;29;20040;-34
2022/10/30 04:39:20;;;;;;;11.93;6.28;;;14.50;85.20;;;;;;4896037;29;20084;-32
2022/10/30 04:41:45;;;;;;;8.93;5.68;;;14.50;85.20;;;;;;4896403;29;20496;-34
2022/10/30 04:44:11;;;;;;;8.88;5.80;;;14.50;85.20;;;;;;4895834;29;20040;-33
2022/10/30 04:46:36;;;;;;;10.10;5.65;;;14.50;85.30;;;;;;4896029;29;20079;-34
2022/10/30 04:49:02;;;;;;;10.75;5.65;;;14.50;85.30;;;;;;4896207;29;20120;-33
2022/10/30 04:51:27;;;;;;;7.95;5.53;;;14.50;85.30;;;;;;4896003;29;20501;-33
2022/10/30 04:53:53;;;;;;;10.57;5.40;;;14.40;85.30;;;;;;4895871;29;20051;-34
2022/10/30 04:56:19;;;;;;;11.45;5.45;;;14.40;85.20;;;;;;4896168;29;20481;-33
2022/10/30 04:58:45;;;;;;;12.32;5.97;;;14.40;85.30;;;;;;4879384;29;20025;-34
2022/10/30 05:01:10;;;;;;;9.80;5.93;;;14.40;85.40;;;;;;4895699;29;20063;-33
2022/10/30 05:03:36;;;;;;;10.57;5.93;;;14.40;85.40;;;;;;4895874;29;20037;-33
2022/10/30 05:06:23;;;;;;;14.70;6.10;;;14.30;85.40;;;;;;4895898;29;20029;-33
2022/10/30 05:08:49;;;;;;;10.40;6.40;;;14.30;85.50;;;;;;4895857;29;20069;-33
2022/10/30 05:11:15;;;;;;;10.00;6.10;;;14.30;85.50;;;;;;4879020;29;20037;-34
2022/10/30 05:13:41;;;;;;;10.38;6.07;;;14.30;85.50;;;;;;4895617;29;20040;-33
2022/10/30 05:16:06;;;;;;;13.32;6.10;;;14.30;85.60;;;;;;4895737;29;20373;-33
2022/10/30 05:18:32;;;;;;;12.18;6.20;;;14.20;85.60;;;;;;4896085;29;20092;-33
2022/10/30 05:20:57;;;;;;;11.40;6.32;;;14.20;85.60;;;;;;4895838;29;20032;-33
2022/10/30 05:23:23;;;;;;;13.23;6.13;;;14.20;85.60;;;;;;4899048;29;20553;-33
2022/10/30 05:25:49;;;;;;;12.23;5.95;;;14.20;85.70;;;;;;4899717;29;20480;-33
2022/10/30 05:28:15;;;;;;;9.52;5.70;;;14.20;85.70;;;;;;4899175;29;20463;-39
2022/10/30 05:30:40;;;;;;;9.07;5.82;;;14.20;85.70;;;;;;4899269;29;20032;-39
2022/10/30 05:33:09;;;;;;;10.73;6.03;;;14.10;85.60;;;;;;4899367;29;20111;-33
2022/10/30 05:35:35;;;;;;;8.23;5.53;;;14.20;85.80;;;;;;4899199;29;20374;-34
2022/10/30 05:38:03;;;;;;;11.13;6.25;;;14.10;85.80;;;;;;4899317;29;20104;-34
2022/10/30 05:40:29;;;;;;;13.63;6.47;;;14.10;85.90;;;;;;4899231;29;20095;-34
2022/10/30 05:42:54;;;;;;;9.68;6.13;;;14.10;85.90;;;;;;4882213;29;20525;-32
2022/10/30 05:45:20;;;;;;;9.82;5.88;;;14.10;85.90;;;;;;4882038;29;20039;-33
2022/10/30 05:47:59;;;;;;;8.98;5.63;;;14.10;85.90;;;;;;4898942;29;20033;-33
2022/10/30 05:50:26;;;;;;;11.65;6.68;;;14.10;85.90;;;;;;4899271;29;20032;-34
2022/10/30 05:53:00;;;;;;;10.52;5.80;;;14.10;85.90;;;;;;4898908;29;20081;-33
2022/10/30 05:55:26;;;;;;;8.75;5.80;;;14.10;85.90;;;;;;4898817;29;20420;-34
2022/10/30 05:57:56;;;;;;;9.82;6.00;;;14.10;86.00;;;;;;4898790;29;20032;-33
2022/10/30 06:00:22;;;;;;;12.05;5.97;;;14.10;86.00;;;;;;4898576;29;20052;-33
2022/10/30 06:02:47;;;;;;;8.85;6.28;;;14.00;86.00;;;;;;4898718;29;20073;-33
2022/10/30 06:05:13;;;;;;;10.98;6.88;;;14.00;86.10;;;;;;4898521;29;20040;-34
2022/10/30 06:07:39;;;;;;;9.23;6.55;;;14.00;86.10;;;;;;4898819;29;20032;-32
2022/10/30 06:10:05;;;;;;;15.88;7.38;;;14.00;86.10;;;;;;4898755;29;20544;-34
2022/10/30 06:12:30;;;;;;;10.38;6.35;;;14.00;86.10;;;;;;4898707;29;20037;-34
2022/10/30 06:14:56;;;;;;;10.90;6.75;;;14.00;86.10;;;;;;4898777;29;20483;-34
2022/10/30 06:17:21;;;;;;;8.40;6.43;;;14.00;86.20;;;;;;4898369;29;20488;-32
2022/10/30 06:19:47;;;;;;;8.85;6.38;;;13.90;86.20;;;;;;4898531;29;20426;-33
2022/10/30 06:22:13;;;;;;;10.00;6.25;;;13.90;86.80;;;;;;4898276;29;20120;-33
2022/10/30 06:24:38;;;;;;;11.02;6.13;;;13.90;86.20;;;;;;4898524;29;20032;-32
2022/10/30 06:27:04;;;;;;;9.35;6.07;;;13.90;86.30;;;;;;4898422;29;20031;-32
2022/10/30 06:29:29;;;;;;;15.77;7.28;;;13.80;86.30;;;;;;4898259;29;20058;-32
2022/10/30 06:31:55;;;;;;;12.05;6.53;;;13.80;86.30;;;;;;4898387;29;20052;-33
2022/10/30 06:34:20;;;;;;;11.63;6.35;;;13.80;86.40;;;;;;4881001;29;20033;-34
2022/10/30 06:36:46;;;;;;;11.25;6.32;;;13.80;86.40;;;;;;4898244;29;20028;-33
2022/10/30 06:39:11;;;;;;;10.25;6.22;;;13.80;86.40;;;;;;4898147;29;20024;-32
2022/10/30 06:41:37;;;;;;;10.70;6.72;;;13.80;86.40;;;;;;4898329;29;20055;-33
2022/10/30 06:44:03;;;;;;;10.27;6.53;;;13.80;86.50;;;;;;4898192;29;20064;-32
2022/10/30 06:46:28;;;;;;;11.38;6.47;;;13.80;86.40;;;;;;4897983;29;20032;-32
2022/10/30 06:48:54;;;;;;;10.32;5.63;;;13.80;86.50;;;;;;4898159;29;20032;-33
2022/10/30 06:51:20;;;;;;;14.77;6.18;;;13.80;86.50;;;;;;4897886;29;20036;-32
2022/10/30 06:53:45;;;;;;;10.18;6.68;;;13.80;86.50;;;;;;4897836;29;20045;-34
2022/10/30 06:56:11;;;;;;;9.73;5.78;;;13.80;86.60;;;;;;4897735;29;20036;-34
2022/10/30 06:58:38;;;;;;;9.55;6.43;;;13.80;86.60;;;;;;4897880;29;20036;-34
2022/10/30 07:01:07;;;;;;;9.98;6.22;;;13.80;86.60;;;;;;4897523;29;20052;-34
2022/10/30 07:03:33;;;;;;;12.45;6.30;;;13.80;86.60;;;;;;4898005;29;20488;-33
2022/10/30 07:05:59;;;;;;;10.95;6.15;;;13.80;86.60;;;;;;4898050;29;20041;-33
2022/10/30 07:08:24;;;;;;;9.25;6.28;;;13.80;86.60;;;;;;4898043;29;20238;-33
2022/10/30 07:10:50;;;;;;;12.18;6.47;;;13.80;86.70;;;;;;4898039;29;20071;-33
2022/10/30 07:13:16;;;;;;;10.05;6.55;;;13.80;86.60;;;;;;4897769;29;20515;-34
2022/10/30 07:15:41;;;;;;;9.57;6.20;;;13.90;86.70;;;;;;4897662;29;20124;-33
2022/10/30 07:18:09;;;;;;;9.82;6.13;;;13.90;86.70;;;;;;4897459;29;20124;-32
2022/10/30 07:20:35;;;;;;;8.40;5.75;;;13.90;87.20;;;;;;4897512;29;20117;-35
2022/10/30 07:23:01;;;;;;;12.45;6.47;;;14.00;86.60;;;;;;4897634;29;20449;-33
2022/10/30 07:25:28;;;;;;;13.07;6.18;;;14.00;86.60;;;;;;4897271;29;20404;-34
2022/10/30 07:27:54;;;;;;;12.35;6.93;;;14.10;86.50;;;;;;4897240;29;20110;-33
2022/10/30 07:30:23;;;;;;;8.98;6.35;;;14.10;86.40;;;;;;4897289;29;20033;-32
2022/10/30 07:33:02;;;;;;;9.35;5.85;;;14.10;86.40;;;;;;4880221;29;20115;-33
2022/10/30 07:35:28;;;;;;;8.70;5.95;;;14.20;86.40;;;;;;4897658;29;20060;-34
2022/10/30 07:37:54;;;;;;;9.82;6.03;;;14.20;86.30;;;;;;4897045;29;20047;-32
2022/10/30 07:40:20;;;;;;;11.25;6.63;;;14.20;86.30;;;;;;4896874;29;20119;-34
2022/10/30 07:42:46;;;;;;;11.43;6.85;;;14.20;86.30;;;;;;4880407;29;20396;-33
2022/10/30 07:45:11;;;;;;;10.90;6.65;;;14.30;86.40;;;;;;4896387;29;20335;-32
2022/10/30 07:47:41;;;;;;;13.82;6.97;;;14.30;86.30;;;;;;4896950;29;20588;-34
2022/10/30 07:50:07;;;;;;;12.30;7.22;;;14.40;86.30;;;;;;4897244;29;20025;-34
2022/10/30 07:52:33;;;;;;;11.90;7.25;;;14.40;86.20;;;;;;4896649;29;20037;-33
2022/10/30 07:54:58;;;;;;;13.85;6.80;;;14.50;86.20;;;;;;4896557;29;20405;-32
2022/10/30 07:57:24;;;;;;;10.93;7.18;;;14.60;86.20;;;;;;4896572;29;20056;-33
2022/10/30 07:59:49;;;;;;;11.32;6.40;;;14.60;86.00;;;;;;4896421;29;20044;-33
2022/10/30 08:02:15;;;;;;;9.68;6.90;;;14.70;86.00;;;;;;4896352;29;20085;-33
2022/10/30 08:04:40;;;;;;;10.88;7.03;;;14.70;86.00;;;;;;4896352;29;20074;-32
2022/10/30 08:07:06;;;;;;;12.93;6.57;;;14.70;86.00;;;;;;4896592;29;20060;-32
2022/10/30 08:09:32;;;;;;;12.95;7.10;;;14.70;86.00;;;;;;4896723;29;20025;-33
2022/10/30 08:11:57;;;;;;;10.30;6.43;;;14.80;86.00;;;;;;4896514;29;20084;-33
2022/10/30 08:14:23;;;;;;;10.95;7.00;;;14.80;86.00;;;;;;4896726;29;20128;-33
2022/10/30 08:16:50;;;;;;;10.65;7.55;;;14.90;86.00;;;;;;4896520;29;20499;-43
2022/10/30 08:19:15;;;;;;;11.57;7.30;;;14.90;85.80;;;;;;4896811;29;20039;-34
2022/10/30 08:21:41;;;;;;;13.48;7.05;;;15.00;85.80;;;;;;4896401;29;20483;-33
2022/10/30 08:24:07;;;;;;;13.25;8.10;;;15.00;85.70;;;;;;4896448;29;20043;-33
2022/10/30 08:26:33;;;;;;;11.35;7.03;;;15.10;85.60;;;;;;4879322;29;20121;-33
2022/10/30 08:28:58;;;;;;;11.00;7.03;;;15.20;85.70;;;;;;4896692;29;20556;-33
2022/10/30 08:31:24;;;;;;;10.15;7.70;;;15.20;85.60;;;;;;4896616;29;20127;-33
2022/10/30 08:33:49;;;;;;;11.60;7.10;;;15.30;85.50;;;;;;4896421;29;20499;-32
2022/10/30 08:36:15;;;;;;;11.43;6.97;;;15.30;85.50;;;;;;4896493;29;20037;-34
2022/10/30 08:38:40;;;;;;;10.98;8.30;;;15.30;85.40;;;;;;4896406;29;20067;-33
2022/10/30 08:41:06;;;;;;;11.90;7.78;;;15.40;85.30;;;;;;4896770;29;20032;-33
2022/10/30 08:43:32;;;;;;;13.75;8.02;;;15.50;85.30;;;;;;4896355;29;20025;-33
2022/10/30 08:45:57;;;;;;;11.10;7.22;;;15.50;85.20;;;;;;4896923;29;20036;-34
2022/10/30 08:48:23;;;;;;;16.15;8.40;;;15.60;85.10;;;;;;4896278;29;20077;-33
2022/10/30 08:50:48;;;;;;;15.70;8.35;;;15.60;85.00;;;;;;4896713;29;20104;-31
2022/10/30 08:53:14;;;;;;;14.63;8.95;;;15.70;84.90;;;;;;4896224;29;20188;-33
2022/10/30 08:55:40;;;;;;;14.25;8.68;;;15.70;84.80;;;;;;4896221;29;20033;-34
2022/10/30 08:58:06;;;;;;;12.27;7.88;;;15.80;84.70;;;;;;4882637;29;20036;-32
2022/10/30 09:00:33;;;;;;;12.15;7.60;;;15.80;84.60;;;;;;4899963;29;20298;-32
2022/10/30 09:02:58;;;;;;;11.65;7.78;;;15.80;84.60;;;;;;4900351;29;20025;-33
2022/10/30 09:05:24;;;;;;;16.75;8.85;;;15.90;84.50;;;;;;4900148;29;20024;-33
2022/10/30 09:07:55;;;;;;;12.52;7.90;;;15.90;84.40;;;;;;4900273;29;20387;-32
2022/10/30 09:10:20;;;;;;;10.38;7.88;;;16.00;84.40;;;;;;4899923;29;20059;-34
2022/10/30 09:12:46;;;;;;;13.15;8.13;;;16.00;84.30;;;;;;4899844;29;20520;-34
2022/10/30 09:15:11;;;;;;;11.57;8.02;;;16.00;84.20;;;;;;4899849;29;20119;-33
2022/10/30 09:17:37;;;;;;;12.48;7.70;;;16.10;84.20;;;;;;4900015;29;20523;-34
2022/10/30 09:20:03;;;;;;;13.32;9.32;;;16.10;84.10;;;;;;4899639;29;20043;-33
2022/10/30 09:22:28;;;;;;;18.80;9.20;;;16.20;84.10;;;;;;4899620;29;20377;-32
2022/10/30 09:24:54;;;;;;;12.48;8.38;;;16.20;84.00;;;;;;4899520;29;20096;-33
2022/10/30 09:27:19;;;;;;;10.23;7.93;;;16.20;84.00;;;;;;4882429;29;20392;-33
2022/10/30 09:29:45;;;;;;;11.32;8.05;;;16.30;83.90;;;;;;4899736;29;20032;-33
2022/10/30 09:32:11;;;;;;;15.18;7.93;;;16.40;83.80;;;;;;4882325;29;20032;-34
2022/10/30 09:34:37;;;;;;;14.15;8.18;;;16.40;83.70;;;;;;4899700;29;20045;-34
2022/10/30 09:37:03;;;;;;;13.90;8.00;;;16.50;83.70;;;;;;4899557;29;20037;-33
2022/10/30 09:39:29;;;;;;;11.38;8.30;;;16.50;83.50;;;;;;4899458;29;20041;-33
2022/10/30 09:42:09;;;;;;;13.88;8.13;;;16.60;83.50;;;;;;4899967;29;20028;-32
2022/10/30 09:44:53;;;;;;;12.02;7.70;;;16.70;83.40;;;;;;4899492;29;20075;-34
2022/10/30 09:47:36;;;;;;;11.20;7.38;;;16.70;83.90;;;;;;4882165;29;20040;-32
2022/10/30 09:50:24;;;;;;;10.80;7.50;;;16.80;83.10;;;;;;4899074;29;20033;-32
2022/10/30 09:53:04;;;;;;;10.60;6.53;;;16.90;83.00;;;;;;4899421;29;20032;-36
2022/10/30 09:55:59;;;;;;;9.18;6.43;;;16.90;82.90;;;;;;4899069;29;20043;-33
2022/10/30 09:58:33;;;;;;;9.70;6.07;;;16.90;82.70;;;;;;4898845;29;20066;-32
2022/10/30 10:01:31;;;;;;;13.05;6.82;;;17.00;82.70;;;;;;4898806;29;20389;-32
2022/10/30 10:04:21;;;;;;;11.00;7.18;;;17.10;82.60;;;;;;4899140;29;20028;-33
2022/10/30 10:06:52;;;;;;;10.82;7.10;;;17.10;82.50;;;;;;4898984;29;20041;-33
2022/10/30 10:09:23;;;;;;;11.65;7.47;;;17.20;82.40;;;;;;4898390;29;20048;-33
2022/10/30 10:11:55;;;;;;;11.82;7.38;;;17.20;82.30;;;;;;4898723;29;20385;-32
2022/10/30 10:14:27;;;;;;;14.27;8.52;;;17.30;82.30;;;;;;4881638;29;20024;-33
2022/10/30 10:16:54;;;;;;;11.15;7.70;;;17.40;82.20;;;;;;4881722;29;20025;-33
2022/10/30 10:19:34;;;;;;;13.70;7.63;;;17.40;82.10;;;;;;4898621;29;20035;-36
2022/10/30 10:22:02;;;;;;;10.30;7.28;;;17.40;82.10;;;;;;4898699;29;20044;-32
2022/10/30 10:24:37;;;;;;;9.88;7.25;;;17.40;82.00;;;;;;4898384;29;20127;-33
2022/10/30 10:27:06;;;;;;;9.77;6.82;;;17.50;82.00;;;;;;4898377;29;20470;-34
2022/10/30 10:29:49;;;;;;;10.88;7.28;;;17.60;81.90;;;;;;4898349;29;20035;-33
2022/10/30 10:32:18;;;;;;;11.98;7.13;;;17.70;81.80;;;;;;4898353;29;20041;-33
2022/10/30 10:35:02;;;;;;;8.85;6.70;;;17.80;81.70;;;;;;4898608;29;20049;-33
2022/10/30 10:37:54;;;;;;;9.55;6.68;;;17.90;81.50;;;;;;4898338;29;20025;-33
2022/10/30 10:40:51;;;;;;;9.32;6.88;;;18.00;81.30;;;;;;4896118;29;20045;-33
2022/10/30 10:43:34;;;;;;;9.35;6.50;;;18.10;81.20;;;;;;4898100;29;20032;-34
2022/10/30 10:46:23;;;;;;;11.30;6.97;;;18.10;81.00;;;;;;4898197;29;20032;-33
2022/10/30 10:49:21;;;;;;;13.02;7.35;;;18.10;81.00;;;;;;4898395;29;20108;-34
2022/10/30 10:52:08;;;;;;;10.93;6.47;;;18.20;81.00;;;;;;4897918;29;20032;-34
2022/10/30 10:54:44;;;;;;;12.57;6.85;;;18.20;80.90;;;;;;4897805;29;20370;-34
2022/10/30 10:57:20;;;;;;;9.63;7.20;;;18.20;80.90;;;;;;4881025;29;20021;-33
2022/10/30 10:59:50;;;;;;;14.05;7.20;;;18.20;80.90;;;;;;4897840;29;20052;-34
2022/10/30 11:02:33;;;;;;;10.55;7.25;;;18.20;80.80;;;;;;4897968;29;20033;-33
2022/10/30 11:05:12;;;;;;;10.93;6.40;;;18.30;80.80;;;;;;4897916;29;20425;-35
2022/10/30 11:07:49;;;;;;;11.43;6.82;;;18.30;80.80;;;;;;4898112;29;20025;-33
2022/10/30 11:10:17;;;;;;;11.50;7.13;;;18.30;80.60;;;;;;4897895;29;20029;-32
2022/10/30 11:12:43;;;;;;;9.05;6.30;;;18.40;80.60;;;;;;4897488;29;20021;-33
2022/10/30 11:15:30;;;;;;;10.82;6.80;;;18.40;80.50;;;;;;4897710;29;20123;-35
2022/10/30 11:18:05;;;;;;;9.45;6.55;;;18.50;80.40;;;;;;4897649;29;20032;-33
2022/10/30 11:21:03;;;;;;;9.07;6.18;;;18.60;80.30;;;;;;4896967;29;20054;-33
2022/10/30 11:23:50;;;;;;;10.20;6.50;;;18.70;80.20;;;;;;4897623;29;20084;-33
2022/10/30 11:26:19;;;;;;;11.25;6.35;;;18.80;80.00;;;;;;4897600;29;20473;-33
2022/10/30 11:28:56;;;;;;;12.80;6.57;;;18.90;79.90;;;;;;4897634;29;20032;-33
2022/10/30 11:31:39;;;;;;;9.93;6.07;;;18.90;79.70;;;;;;4897364;29;20040;-33
2022/10/30 11:34:17;;;;;;;14.35;6.40;;;19.00;79.60;;;;;;4897320;29;20113;-34
2022/10/30 11:36:50;;;;;;;11.25;6.20;;;19.10;79.50;;;;;;4897234;29;20021;-34
2022/10/30 11:39:27;;;;;;;10.73;6.03;;;19.20;79.40;;;;;;4897319;29;20043;-34
2022/10/30 11:42:05;;;;;;;8.43;6.03;;;19.20;79.30;;;;;;4897099;29;20029;-33
2022/10/30 11:44:49;;;;;;;11.95;6.05;;;19.30;79.20;;;;;;4897373;29;20029;-33
2022/10/30 11:47:17;;;;;;;10.80;5.75;;;19.30;79.00;;;;;;4897291;29;20032;-32
2022/10/30 11:49:57;;;;;;;13.07;5.97;;;19.40;78.90;;;;;;4897227;29;20080;-32
2022/10/30 11:52:25;;;;;;;8.35;6.20;;;19.40;78.60;;;;;;4896935;29;20136;-34
2022/10/30 11:54:59;;;;;;;13.32;5.97;;;19.40;78.60;;;;;;4897085;29;20028;-34
2022/10/30 11:57:36;;;;;;;9.45;5.97;;;19.50;78.60;;;;;;4896958;29;20111;-33
2022/10/30 12:00:06;;;;;;;10.35;6.07;;;19.60;78.50;;;;;;4896706;29;20080;-32
2022/10/30 12:02:40;;;;;;;12.13;5.65;;;19.60;78.30;;;;;;4896996;29;20248;-32
2022/10/30 12:05:26;;;;;;;9.13;5.20;;;19.70;78.80;;;;;;4897198;29;20017;-36
2022/10/30 12:08:13;;;;;;;10.40;6.22;;;19.80;78.00;;;;;;4897007;29;20032;-32
2022/10/30 12:10:43;;;;;;;11.90;5.95;;;19.80;77.90;;;;;;4896329;29;20104;-33
2022/10/30 12:13:14;;;;;;;10.07;5.85;;;19.90;77.80;;;;;;4896511;29;20040;-33
2022/10/30 12:15:41;;;;;;;8.98;5.05;;;19.90;77.70;;;;;;4896752;29;20111;-34
2022/10/30 12:18:17;;;;;;;8.00;4.80;;;20.00;77.60;;;;;;4896635;29;20032;-33
2022/10/30 12:20:46;;;;;;;8.07;4.68;;;20.00;77.40;;;;;;4896955;29;20020;-33
2022/10/30 12:23:18;;;;;;;7.70;5.22;;;20.00;77.30;;;;;;4896518;29;20111;-33
2022/10/30 12:25:48;;;;;;;10.93;5.57;;;20.00;77.20;;;;;;4896427;29;20036;-33
2022/10/30 12:28:17;;;;;;;6.70;4.15;;;20.00;77.10;;;;;;4896378;29;20052;-33
2022/10/30 12:30:51;;;;;;;10.00;5.57;;;20.10;77.10;;;;;;4896365;29;20058;-33
2022/10/30 12:33:24;;;;;;;8.88;5.78;;;20.10;77.00;;;;;;4879656;29;20028;-34
2022/10/30 12:36:20;;;;;;;8.13;5.60;;;20.20;76.90;;;;;;4896581;29;20028;-34
2022/10/30 12:39:02;;;;;;;13.25;5.65;;;20.20;76.80;;;;;;4894285;29;20036;-32
2022/10/30 12:41:34;;;;;;;8.90;5.40;;;20.30;76.70;;;;;;4880526;29;20085;-33
2022/10/30 12:44:13;;;;;;;9.10;5.20;;;20.30;76.60;;;;;;4896475;29;20112;-33
2022/10/30 12:46:54;;;;;;;5.40;4.68;;;20.30;76.40;;;;;;4896594;29;20640;-35
2022/10/30 12:49:39;;;;;;;8.73;4.82;;;20.30;76.40;;;;;;4896481;29;20040;-35
2022/10/30 12:52:10;;;;;;;9.88;5.13;;;20.40;76.40;;;;;;4896289;29;20033;-34
2022/10/30 12:54:51;;;;;;;9.18;4.85;;;20.40;76.40;;;;;;4896854;29;20032;-34